Cordova, TN

6:48 PM CDT on March 29, 2015 (GMT -0500)
Sanga Point | | Change Station
CLOSE
Current Station
Personal Weather Station
Location: Cordova, TN
Elevation: 272 ft
Nearby Weather Stations
Active Advisory: Flood Advisory Active Notice: Record Report

Elev 272 ft 35.11 °N, 89.77 °W | Updated 6 seconds ago

Partly Cloudy
Partly Cloudy
69.3 °F
Feels Like 69.3 °F
N
5.8
Wind Variable Wind from South
Gusts 5.8 mph

Today
High -- | Low -- °F
--% Chance of Precip.
Yesterday
High -- | Low -- °F
Precip. -- in
6:50 AM 7:17 PM
Waxing Gibbous, 75% visible
Pressure 30.03 in
Visibility 10.0 miles
Clouds Scattered Clouds 5000 ft
Dew Point 55 °F
Humidity 60%
Rainfall 0.00 in
Snow Depth Not available.
UV 1 out of 12
Pollen 10.20 out of 12
Air Quality Not available.
Flu Activity Not available.
METAR KOLV 292250Z 20015G19KT 10SM SCT050 21/10 A3003

More Conditions Fewer Conditions

Pressure 30.03 in
Visibility 10.0 miles
Clouds Scattered Clouds 5000 ft
Dew Point 55 °F
Humidity 60%
Rainfall 0.00 in
Snow Depth Not available.
UV 1 out of 12
Pollen 10.20 out of 12
Air Quality Not available.
Flu Activity Not available.
METAR KOLV 292250Z 20015G19KT 10SM SCT050 21/10 A3003

More Conditions Fewer Conditions

10-Day Weather Forecast

Almanac

Astronomy

Mar. 29, 2015 Rise Set
Actual Time
Civil Twilight
Nautical Twilight
Astronomical Twilight
Moon
Length of Visible Light
Length of Day
Tomorrow will be .
, % of the Moon is Illuminated

Today's Extremes

State Highs State Lows

Community

WunderPhotos

Upload Photos

1,809,380 photos uploaded!

WunderBlogs® & News

Nearby

Air Quality

  Air Quality AQ Index Pollutant
Not available.

Snow Depth

Station Depth Elevation

Earthquake Activity

City Distance Mag. Time & Date
Minimum magnitude displayed is 2.5.

Coastal Water Temperatures

Place Temperature

Stations

Nearby Weather Stations

Station Location Temp. Windchill Dew Point Humidity Wind Precip. Elev Updated Type
                   
Flood Advisory
Statement as of 11:34 AM CDT on March 29, 2015

The Flood Advisory continues for
the Mississippi River at Memphis
* until Wednesday April 01.
* At 11 am Sunday the stage was 30.9 feet.
* Flood stage is 34.0 feet.
* Forecast... the river will continue a slow fall.
* At 30.0 feet... in Memphis, the boat Landing on the north end of Mud
Island at the mouth of the Wolf River is covered. In Arkansas,
recreational vehicle Park South of West Memphis starts to flood.
Dacus Lake Road is flooding north and south of I-40. The river is
against the toe of the levee from the north Shelby County line
south to near sulcer Road. Water is encroaching the levee near the
south end of island 40 chute. The Camp near Mound City is flooding.
Water is beginning to flood The Settlement near Blue Lake.


Lat... Lon 3539 9025 3539 8995 3533 9005 3513 9004
      3491 9008 3491 9041